GOBD Airport Information

Runway Information
Runway 01 Length 11483 ft width 197 ft
Elevation 272 ft Threshold 394 ft Heading 359
Runway 19 Length 11483 ft Width 197 ft
Elevation 251 ft Threshold 394 ft Heading 179
Airport Frequencies
Airport Navaids
Airport Weather Information & NOTAM
ADDS - METARS form results

(0326 UTC 30 September 2022)
Data provider http://aviationweather.gov/metar/data/
 
METAR text: GOBD 300300Z 25006KT 9999 FEW016 27/26 Q1011 NOSIG
Conditions at: GOBD (DAKAR/DIAGNE , SN) observed 0300 UTC 30 September 2022
Temperature: 27.0°C (81°F)
Dewpoint: 26.0°C (79°F) [RH = 94%]
Pressure (altimeter): 29.85 inches Hg (1011.0 mb)
Winds: from the WSW (250 degrees) at 7 MPH (6 knots; 3.1 m/s)
Visibility: 6 or more miles (10+ km)
Ceiling: at least 12,000 feet AGL
Clouds: few clouds at 1600 feet AGL
Weather: no significant weather observed at this time

METAR text: GOBD 300230Z 24009KT 9999 SCT013 27/26 Q1012 NOSIG
Conditions at: GOBD (DAKAR/DIAGNE , SN) observed 0230 UTC 30 September 2022
Temperature: 27.0°C (81°F)
Dewpoint: 26.0°C (79°F) [RH = 94%]
Pressure (altimeter): 29.88 inches Hg (1012.0 mb)
Winds: from the WSW (240 degrees) at 10 MPH (9 knots; 4.6 m/s)
Visibility: 6 or more miles (10+ km)
Ceiling: at least 12,000 feet AGL
Clouds: scattered clouds at 1300 feet AGL
Weather: no significant weather observed at this time

Forecast for: COR
Text: TAF COR GOBD 292300Z 3000/0106 26008KT 9999 SCT013
Forecast period: 0000 UTC 30 September 2022 to 0600 UTC 01 October 2022
Forecast type: FROM: standard forecast or significant change
Winds: from the W (260 degrees) at 9 MPH (8 knots; 4.1 m/s)
Visibility: 6 or more miles (10+ km)
Ceiling: at least 12,000 feet AGL
Clouds: scattered clouds at 1300 feet AGL
Weather: no significant weather forecast for this period